Time;durP1;ratioP1;P1;durP2;ratioP2;P2;SDS_P1;SDS_P2;PMS_P1;PMS_P2;Temp;Humidity;BMP_temperature;BMP_pressure;BME280_temperature;BME280_humidity;BME280_pressure;Samples;Min_cycle;Max_cycle;Signal;HPM_P1;HPM_P2
2024/04/01 00:01:02;;;;;;;17.23;9.02;;;15.90;96.00;;;;;;5060241;28;20033;-74
2024/04/01 00:03:28;;;;;;;23.13;10.07;;;15.80;95.90;;;;;;5053975;28;20037;-74
2024/04/01 00:05:55;;;;;;;20.67;10.00;;;15.80;95.90;;;;;;5046651;28;20483;-74
2024/04/01 00:08:21;;;;;;;25.23;10.00;;;15.90;95.80;;;;;;5062445;28;20133;-74
2024/04/01 00:10:48;;;;;;;20.00;10.20;;;15.80;95.80;;;;;;5066705;28;20029;-74
2024/04/01 00:13:15;;;;;;;19.45;10.45;;;15.80;95.80;;;;;;5057808;28;20853;-74
2024/04/01 00:15:41;;;;;;;21.95;10.85;;;15.90;95.70;;;;;;5067683;28;20048;-74
2024/04/01 00:18:06;;;;;;;24.40;11.07;;;15.80;95.70;;;;;;5060948;28;20475;-74
2024/04/01 00:20:32;;;;;;;23.17;11.70;;;15.80;95.70;;;;;;5048620;28;20120;-74
2024/04/01 00:22:58;;;;;;;22.70;10.48;;;15.80;95.70;;;;;;5048109;28;20025;-74
2024/04/01 00:25:24;;;;;;;16.85;9.45;;;15.80;95.70;;;;;;5049834;28;20095;-74
2024/04/01 00:27:51;;;;;;;21.48;10.88;;;15.80;95.80;;;;;;5051162;28;20040;-74
2024/04/01 00:30:17;;;;;;;18.45;10.30;;;15.70;95.70;;;;;;5049464;28;20094;-74
2024/04/01 00:32:43;;;;;;;17.40;9.30;;;15.70;95.80;;;;;;5050376;28;20032;-74
2024/04/01 00:35:09;;;;;;;25.92;10.52;;;15.70;95.80;;;;;;5055653;28;20097;-74
2024/04/01 00:37:35;;;;;;;25.60;10.85;;;15.70;95.80;;;;;;5052062;28;20665;-74
2024/04/01 00:40:01;;;;;;;18.63;9.93;;;15.60;95.70;;;;;;5060399;28;20383;-74
2024/04/01 00:42:26;;;;;;;20.98;10.05;;;15.60;95.70;;;;;;5053929;28;20032;-74
2024/04/01 00:44:52;;;;;;;23.42;10.32;;;15.60;95.70;;;;;;5058830;28;20029;-74
2024/04/01 00:47:18;;;;;;;22.10;9.40;;;15.60;95.70;;;;;;5054297;28;20025;-74
2024/04/01 00:49:44;;;;;;;21.40;9.27;;;15.60;95.70;;;;;;5062894;28;20033;-74
2024/04/01 00:52:11;;;;;;;25.52;9.27;;;15.60;95.70;;;;;;5067176;28;20104;-74
2024/04/01 00:54:37;;;;;;;17.38;9.05;;;15.60;95.70;;;;;;5059669;28;20040;-74
2024/04/01 00:57:03;;;;;;;16.80;9.05;;;15.60;95.80;;;;;;5064871;28;20075;-74
2024/04/01 00:59:29;;;;;;;17.50;9.00;;;15.50;95.80;;;;;;5052923;28;20045;-74
2024/04/01 01:01:55;;;;;;;22.88;8.85;;;15.50;95.70;;;;;;5048544;28;20037;-73
2024/04/01 01:04:21;;;;;;;16.15;8.98;;;15.50;95.70;;;;;;5059820;28;20037;-74
2024/04/01 01:06:48;;;;;;;17.05;8.93;;;15.50;95.70;;;;;;5047760;28;20116;-74
2024/04/01 01:09:14;;;;;;;15.20;8.50;;;15.50;95.70;;;;;;5057846;28;20051;-74
2024/04/01 01:11:40;;;;;;;18.33;9.15;;;15.50;95.70;;;;;;5055161;28;20021;-74
2024/04/01 01:14:05;;;;;;;18.25;8.13;;;15.50;95.70;;;;;;5052396;28;20060;-74
2024/04/01 01:16:31;;;;;;;16.80;8.65;;;15.50;95.70;;;;;;5055098;28;20468;-74
2024/04/01 01:18:57;;;;;;;16.50;7.85;;;15.50;95.70;;;;;;5065960;28;20040;-74
2024/04/01 01:21:23;;;;;;;12.80;7.22;;;15.40;95.60;;;;;;5060372;28;20472;-74
2024/04/01 01:23:49;;;;;;;17.83;8.23;;;15.50;95.60;;;;;;5048213;28;20117;-74
2024/04/01 01:26:14;;;;;;;14.60;7.47;;;15.50;95.50;;;;;;5059139;28;20151;-74
2024/04/01 01:28:41;;;;;;;13.75;7.45;;;15.60;95.40;;;;;;5048649;28;20029;-74
2024/04/01 01:31:06;;;;;;;15.45;7.03;;;15.60;95.30;;;;;;5057318;28;20119;-74
2024/04/01 01:33:32;;;;;;;14.90;6.55;;;15.60;95.20;;;;;;5058243;28;20186;-73
2024/04/01 01:35:58;;;;;;;14.85;7.18;;;15.60;95.20;;;;;;5049093;28;20045;-73
2024/04/01 01:38:24;;;;;;;14.75;7.10;;;15.70;95.20;;;;;;5056000;28;20041;-74
2024/04/01 01:40:49;;;;;;;16.63;6.82;;;15.70;95.10;;;;;;5057140;28;20159;-74
2024/04/01 01:43:15;;;;;;;15.10;6.43;;;15.70;95.00;;;;;;5048699;28;20020;-74
2024/04/01 01:45:40;;;;;;;13.10;6.20;;;15.80;94.90;;;;;;5052085;28;20369;-74
2024/04/01 01:48:06;;;;;;;12.07;5.68;;;15.80;94.70;;;;;;5057729;28;20028;-74
2024/04/01 01:50:32;;;;;;;9.75;5.63;;;15.80;94.70;;;;;;5066687;28;20035;-74
2024/04/01 01:52:58;;;;;;;14.05;5.55;;;15.70;94.70;;;;;;5066853;28;20426;-74
2024/04/01 01:55:23;;;;;;;13.30;5.90;;;15.60;94.80;;;;;;5065938;28;20059;-74
2024/04/01 01:57:52;;;;;;;14.13;5.78;;;15.60;94.70;;;;;;5061723;28;20218;-74
2024/04/01 02:00:18;;;;;;;11.50;5.47;;;15.60;94.50;;;;;;5065114;28;20179;-74
2024/04/01 02:02:43;;;;;;;11.98;6.00;;;15.70;94.50;;;;;;5066499;28;20035;-74
2024/04/01 02:05:09;;;;;;;17.70;6.30;;;15.60;94.60;;;;;;5063561;28;20040;-74
2024/04/01 02:07:35;;;;;;;14.50;5.63;;;15.50;94.60;;;;;;5059926;28;20032;-73
2024/04/01 02:10:02;;;;;;;9.18;5.85;;;15.50;94.60;;;;;;5065301;28;20024;-74
2024/04/01 02:12:27;;;;;;;12.65;6.15;;;15.50;94.50;;;;;;5054844;28;20116;-74
2024/04/01 02:14:53;;;;;;;12.95;5.57;;;15.50;94.50;;;;;;5051423;28;20116;-74
2024/04/01 02:17:19;;;;;;;15.40;5.28;;;15.50;94.60;;;;;;5060497;28;20250;-74
2024/04/01 02:19:45;;;;;;;13.85;5.80;;;15.40;94.70;;;;;;5057618;28;20436;-74
2024/04/01 02:22:14;;;;;;;12.23;5.43;;;15.40;94.80;;;;;;5064895;28;20438;-74
2024/04/01 02:24:43;;;;;;;13.90;6.68;;;15.30;94.80;;;;;;5065637;28;20047;-74
2024/04/01 02:27:09;;;;;;;13.85;5.70;;;15.30;94.80;;;;;;5062248;28;20029;-74
2024/04/01 02:29:39;;;;;;;12.65;5.60;;;15.30;94.70;;;;;;5051875;28;20037;-73
2024/04/01 02:32:06;;;;;;;14.52;5.88;;;15.40;94.50;;;;;;5057520;28;20042;-73
2024/04/01 02:34:32;;;;;;;7.90;5.03;;;15.40;94.50;;;;;;5051860;28;20472;-74
2024/04/01 02:36:58;;;;;;;9.50;5.55;;;15.40;94.50;;;;;;5049728;28;20043;-74
2024/04/01 02:39:23;;;;;;;10.32;5.43;;;15.30;94.60;;;;;;5052657;28;20029;-74
2024/04/01 02:41:50;;;;;;;13.90;5.63;;;15.20;94.70;;;;;;5053889;28;20029;-73
2024/04/01 02:44:16;;;;;;;14.55;5.95;;;15.20;94.70;;;;;;5064732;28;20033;-74
2024/04/01 02:46:43;;;;;;;17.50;6.30;;;15.20;94.70;;;;;;5062582;28;20756;-73
2024/04/01 02:49:09;;;;;;;15.95;6.20;;;15.20;94.70;;;;;;5062322;28;20038;-74
2024/04/01 02:51:35;;;;;;;16.65;5.47;;;15.20;94.70;;;;;;5048756;28;20040;-74
2024/04/01 02:54:01;;;;;;;10.95;5.57;;;15.10;94.60;;;;;;5063273;28;20025;-74
2024/04/01 02:56:27;;;;;;;9.88;5.28;;;15.10;94.70;;;;;;5053067;28;20136;-74
2024/04/01 02:58:53;;;;;;;11.40;5.78;;;15.10;94.80;;;;;;5057514;28;20132;-73
2024/04/01 03:01:19;;;;;;;15.30;6.35;;;15.00;94.90;;;;;;5049773;28;20029;-74
2024/04/01 03:03:45;;;;;;;10.63;5.43;;;15.00;95.00;;;;;;5056669;28;20037;-73
2024/04/01 03:06:12;;;;;;;12.77;5.65;;;14.90;95.00;;;;;;5062682;28;20035;-74
2024/04/01 03:08:38;;;;;;;11.93;5.95;;;15.00;95.10;;;;;;5053759;28;21208;-74
2024/04/01 03:11:04;;;;;;;11.52;5.28;;;14.90;95.10;;;;;;5062079;28;20531;-74
2024/04/01 03:13:30;;;;;;;12.95;6.65;;;14.90;95.10;;;;;;5061235;28;20120;-74
2024/04/01 03:15:57;;;;;;;17.70;6.20;;;14.90;95.10;;;;;;5056021;28;20040;-74
2024/04/01 03:18:23;;;;;;;13.40;6.30;;;14.90;95.10;;;;;;5060669;28;20490;-73
2024/04/01 03:20:50;;;;;;;14.30;5.88;;;14.80;95.20;;;;;;5064353;28;20119;-72
2024/04/01 03:23:16;;;;;;;12.95;6.10;;;14.80;95.20;;;;;;5057185;28;20033;-73
2024/04/01 03:25:43;;;;;;;11.15;6.55;;;14.80;95.30;;;;;;5051235;28;20037;-73
2024/04/01 03:28:08;;;;;;;9.68;5.38;;;14.70;95.20;;;;;;5050081;28;20915;-74
2024/04/01 03:30:34;;;;;;;10.20;5.63;;;14.80;95.20;;;;;;5061312;28;20028;-74
2024/04/01 03:33:00;;;;;;;15.05;6.70;;;14.70;95.20;;;;;;5050238;28;20021;-74
2024/04/01 03:35:26;;;;;;;13.90;5.88;;;14.70;95.10;;;;;;5051352;28;20040;-74
2024/04/01 03:37:52;;;;;;;14.00;6.10;;;14.70;95.10;;;;;;5051311;28;20089;-74
2024/04/01 03:40:19;;;;;;;15.00;6.82;;;14.70;95.10;;;;;;5065362;28;20024;-74
2024/04/01 03:42:45;;;;;;;11.07;5.93;;;14.70;95.00;;;;;;5059596;28;20044;-74
2024/04/01 03:45:10;;;;;;;14.57;5.93;;;14.80;95.00;;;;;;5050715;28;20033;-74
2024/04/01 03:47:37;;;;;;;16.75;6.30;;;14.80;94.80;;;;;;5049396;28;20059;-75
2024/04/01 03:50:05;;;;;;;16.42;6.10;;;14.90;94.70;;;;;;5049558;28;20044;-75
2024/04/01 03:52:36;;;;;;;13.43;5.70;;;14.90;94.60;;;;;;5067412;28;20115;-74
2024/04/01 03:55:02;;;;;;;12.57;6.65;;;15.00;94.50;;;;;;5056046;28;20041;-74
2024/04/01 03:57:28;;;;;;;15.25;6.05;;;15.00;94.40;;;;;;5060374;28;20037;-74
2024/04/01 03:59:54;;;;;;;9.70;6.10;;;15.10;94.20;;;;;;5056030;28;20511;-74
2024/04/01 04:02:19;;;;;;;12.38;6.32;;;15.10;94.10;;;;;;5054903;28;20048;-74
2024/04/01 04:04:45;;;;;;;14.70;6.82;;;15.20;94.00;;;;;;5063978;28;20372;-74
2024/04/01 04:07:11;;;;;;;14.93;6.18;;;15.20;93.90;;;;;;5066068;28;20059;-75
2024/04/01 04:09:37;;;;;;;16.00;5.95;;;15.20;93.90;;;;;;5048965;28;20469;-74
2024/04/01 04:12:03;;;;;;;12.48;6.07;;;15.20;93.80;;;;;;5058890;28;20388;-74
2024/04/01 04:14:29;;;;;;;9.55;5.80;;;15.20;93.80;;;;;;5055454;28;20392;-74
2024/04/01 04:16:54;;;;;;;13.25;5.85;;;15.10;93.80;;;;;;5066325;28;20044;-74
2024/04/01 04:19:21;;;;;;;13.88;6.32;;;15.10;93.80;;;;;;5062273;28;20029;-74
2024/04/01 04:21:47;;;;;;;16.85;6.40;;;15.00;93.80;;;;;;5065376;28;20058;-78
2024/04/01 04:24:15;;;;;;;13.23;6.43;;;15.00;93.90;;;;;;5047348;28;20028;-75
2024/04/01 04:26:42;;;;;;;13.35;6.45;;;14.90;94.10;;;;;;5061120;28;20032;-74
2024/04/01 04:29:08;;;;;;;12.38;7.25;;;14.80;94.20;;;;;;5058227;28;20037;-75
2024/04/01 04:31:34;;;;;;;15.73;6.75;;;14.70;94.30;;;;;;5051862;28;20040;-75
2024/04/01 04:34:05;;;;;;;12.75;6.93;;;14.70;94.30;;;;;;5060540;28;20109;-75
2024/04/01 04:36:30;;;;;;;15.65;7.28;;;14.80;94.40;;;;;;5054504;28;20128;-74
2024/04/01 04:38:56;;;;;;;19.55;7.50;;;14.70;94.40;;;;;;5061144;28;20082;-75
2024/04/01 04:41:22;;;;;;;18.65;7.55;;;14.70;94.50;;;;;;5047145;28;20108;-75
2024/04/01 04:43:48;;;;;;;14.02;7.07;;;14.70;94.60;;;;;;5047658;28;20052;-75
2024/04/01 04:46:14;;;;;;;14.23;6.88;;;14.60;94.60;;;;;;5064942;28;20036;-75
2024/04/01 04:48:42;;;;;;;15.50;7.90;;;14.60;94.60;;;;;;5068414;28;20021;-74
2024/04/01 04:51:08;;;;;;;14.75;6.95;;;14.60;94.60;;;;;;5048997;28;20531;-75
2024/04/01 04:53:34;;;;;;;18.63;7.65;;;14.70;94.60;;;;;;5052569;28;20040;-75
2024/04/01 04:56:00;;;;;;;14.80;7.10;;;14.70;94.60;;;;;;5066892;28;20390;-75
2024/04/01 04:58:25;;;;;;;12.57;7.10;;;14.70;94.60;;;;;;5057269;28;20041;-75
2024/04/01 05:00:51;;;;;;;14.57;7.55;;;14.70;94.60;;;;;;5054909;28;20438;-74
2024/04/01 05:03:18;;;;;;;17.05;8.27;;;14.70;94.60;;;;;;5061413;28;20028;-74
2024/04/01 05:05:44;;;;;;;13.90;7.97;;;14.70;94.60;;;;;;5048540;28;20107;-75
2024/04/01 05:08:09;;;;;;;13.45;7.43;;;14.70;94.50;;;;;;5056603;28;20092;-75
2024/04/01 05:10:35;;;;;;;21.85;7.45;;;14.70;94.50;;;;;;5048801;28;20033;-75
2024/04/01 05:13:00;;;;;;;19.60;8.15;;;14.60;94.60;;;;;;5057717;28;20036;-75
2024/04/01 05:15:27;;;;;;;14.02;8.13;;;14.60;94.60;;;;;;5061343;28;20464;-75
2024/04/01 05:17:53;;;;;;;21.00;7.90;;;14.60;94.70;;;;;;5052500;28;20155;-74
2024/04/01 05:20:19;;;;;;;20.50;8.15;;;14.60;94.80;;;;;;5053793;28;20504;-74
2024/04/01 05:22:44;;;;;;;19.30;8.90;;;14.50;94.80;;;;;;5047548;28;20404;-75
2024/04/01 05:25:10;;;;;;;19.42;7.63;;;14.50;94.80;;;;;;5060260;28;20032;-75
2024/04/01 05:27:36;;;;;;;18.38;8.27;;;14.50;94.90;;;;;;5047922;28;20029;-75
2024/04/01 05:30:04;;;;;;;19.70;9.18;;;14.40;94.90;;;;;;5047945;28;20032;-75
2024/04/01 05:32:31;;;;;;;19.48;9.45;;;14.40;94.90;;;;;;5070288;28;20029;-75
2024/04/01 05:34:57;;;;;;;20.02;10.48;;;14.40;95.00;;;;;;5069877;28;20047;-75
2024/04/01 05:37:23;;;;;;;21.85;9.25;;;14.40;95.00;;;;;;5051333;28;20037;-72
2024/04/01 05:39:52;;;;;;;17.00;9.98;;;14.40;94.90;;;;;;5063163;28;20032;-72
2024/04/01 05:42:19;;;;;;;20.65;9.70;;;14.40;95.00;;;;;;5054054;28;20107;-72
2024/04/01 05:44:44;;;;;;;20.92;9.85;;;14.50;95.00;;;;;;5062005;28;20033;-72
2024/04/01 05:47:10;;;;;;;18.98;9.45;;;14.50;94.90;;;;;;5063088;28;20040;-73
2024/04/01 05:49:36;;;;;;;18.27;9.60;;;14.60;95.00;;;;;;5055764;28;20032;-73
2024/04/01 05:52:05;;;;;;;21.75;9.80;;;14.60;94.90;;;;;;5071767;28;20052;-73
2024/04/01 05:54:31;;;;;;;17.27;9.25;;;14.70;94.90;;;;;;5070945;28;20047;-72
2024/04/01 05:56:58;;;;;;;16.58;8.93;;;14.70;94.80;;;;;;5056389;28;20115;-72
2024/04/01 05:59:27;;;;;;;16.85;10.13;;;14.70;94.80;;;;;;5055897;28;20049;-72
2024/04/01 06:01:54;;;;;;;19.75;9.75;;;14.70;94.80;;;;;;5057795;28;20037;-73
2024/04/01 06:04:21;;;;;;;18.73;9.23;;;14.70;94.80;;;;;;5065782;28;20067;-72
2024/04/01 06:06:50;;;;;;;25.33;9.73;;;14.70;94.80;;;;;;5068919;28;20040;-72
2024/04/01 06:09:16;;;;;;;17.05;8.85;;;14.60;94.90;;;;;;5068003;28;20121;-73
2024/04/01 06:11:41;;;;;;;18.73;9.82;;;14.70;94.80;;;;;;5051866;28;20483;-72
2024/04/01 06:14:08;;;;;;;18.35;9.57;;;14.80;94.80;;;;;;5062969;28;20127;-72
2024/04/01 06:16:35;;;;;;;21.48;9.77;;;14.80;94.70;;;;;;5060615;28;20028;-73
2024/04/01 06:19:00;;;;;;;21.70;9.40;;;14.80;94.70;;;;;;5068830;28;20090;-72
2024/04/01 06:21:26;;;;;;;17.95;8.77;;;14.80;94.70;;;;;;5069131;28;20483;-73
2024/04/01 06:23:51;;;;;;;15.45;9.32;;;14.80;94.70;;;;;;5054011;28;20061;-72
2024/04/01 06:26:17;;;;;;;20.35;9.85;;;14.90;94.70;;;;;;5051079;28;20047;-73
2024/04/01 06:28:44;;;;;;;18.80;9.55;;;14.90;94.60;;;;;;5052188;28;20033;-72
2024/04/01 06:31:10;;;;;;;24.85;10.05;;;14.80;94.60;;;;;;5063327;28;20025;-73
2024/04/01 06:33:35;;;;;;;20.15;10.07;;;14.70;94.70;;;;;;5062168;28;20472;-72
2024/04/01 06:36:04;;;;;;;18.88;9.88;;;14.70;94.80;;;;;;5051148;28;20051;-72
2024/04/01 06:38:32;;;;;;;24.63;10.55;;;14.70;94.90;;;;;;5065487;28;20120;-72
2024/04/01 06:40:57;;;;;;;16.77;10.52;;;14.60;94.90;;;;;;5050545;28;20037;-73
2024/04/01 06:43:23;;;;;;;28.67;10.15;;;14.70;95.00;;;;;;5057948;28;20442;-72
2024/04/01 06:45:53;;;;;;;15.32;9.52;;;14.70;95.00;;;;;;5066497;28;20063;-73
2024/04/01 06:48:18;;;;;;;23.55;10.38;;;14.70;95.10;;;;;;5058179;28;20115;-73
2024/04/01 06:50:44;;;;;;;23.48;10.88;;;14.60;95.10;;;;;;5060225;28;20115;-73
2024/04/01 06:53:10;;;;;;;22.92;10.68;;;14.60;95.10;;;;;;5062304;28;20028;-72
2024/04/01 06:55:36;;;;;;;19.13;11.25;;;14.60;95.10;;;;;;5057898;28;20090;-74
2024/04/01 06:58:01;;;;;;;20.13;11.40;;;14.60;95.10;;;;;;5055850;28;20457;-74
2024/04/01 07:00:27;;;;;;;17.50;10.68;;;14.60;95.20;;;;;;5052173;28;20051;-74
2024/04/01 07:02:53;;;;;;;25.25;11.68;;;14.50;95.20;;;;;;5052190;28;20076;-74
2024/04/01 07:05:19;;;;;;;18.63;11.02;;;14.50;95.30;;;;;;5065020;28;20058;-74
2024/04/01 07:07:45;;;;;;;25.85;11.63;;;14.50;95.30;;;;;;5062931;28;20127;-73
2024/04/01 07:10:11;;;;;;;20.73;12.60;;;14.50;95.30;;;;;;5062631;28;20071;-73
2024/04/01 07:12:37;;;;;;;30.88;13.38;;;14.50;95.40;;;;;;5051007;28;20431;-73
2024/04/01 07:15:03;;;;;;;18.77;12.05;;;14.50;95.40;;;;;;5069217;28;20028;-73
2024/04/01 07:17:29;;;;;;;23.05;12.63;;;14.50;95.50;;;;;;5067475;28;20139;-73
2024/04/01 07:19:54;;;;;;;25.48;13.55;;;14.40;95.40;;;;;;5051416;28;20460;-73
2024/04/01 07:22:20;;;;;;;24.58;13.73;;;14.50;95.50;;;;;;5050609;28;20040;-74
2024/04/01 07:24:46;;;;;;;23.10;13.15;;;14.40;95.60;;;;;;5050668;28;20057;-74
2024/04/01 07:27:12;;;;;;;25.35;12.93;;;14.40;95.80;;;;;;5060326;28;20056;-73
2024/04/01 07:29:37;;;;;;;21.15;12.48;;;14.40;95.80;;;;;;5050175;28;20032;-75
2024/04/01 07:32:03;;;;;;;25.15;12.60;;;14.50;95.90;;;;;;5052641;28;20040;-74
2024/04/01 07:34:29;;;;;;;21.80;13.05;;;14.50;96.00;;;;;;5055078;28;20040;-74
2024/04/01 07:36:55;;;;;;;21.92;13.45;;;14.60;95.90;;;;;;5049366;28;20049;-74
2024/04/01 07:39:20;;;;;;;27.42;14.43;;;14.60;95.90;;;;;;5066343;28;20038;-73
2024/04/01 07:41:46;;;;;;;24.95;14.73;;;14.50;95.90;;;;;;5057092;28;20486;-74
2024/04/01 07:44:12;;;;;;;29.17;13.90;;;14.60;96.10;;;;;;5049514;28;20468;-74
2024/04/01 07:46:37;;;;;;;21.50;12.52;;;14.60;96.10;;;;;;5058876;28;20032;-75
2024/04/01 07:49:03;;;;;;;25.52;13.43;;;14.60;96.10;;;;;;5066686;28;20062;-74
2024/04/01 07:51:29;;;;;;;22.63;13.45;;;14.70;96.20;;;;;;5068283;28;20119;-74
2024/04/01 07:53:56;;;;;;;21.35;13.68;;;14.70;96.20;;;;;;5051415;28;20128;-74
2024/04/01 07:56:23;;;;;;;21.42;13.10;;;14.70;96.20;;;;;;5051935;28;20101;-74
2024/04/01 07:58:49;;;;;;;23.92;13.45;;;14.70;96.20;;;;;;5049470;28;20053;-74
2024/04/01 08:01:15;;;;;;;27.27;13.73;;;14.70;96.20;;;;;;5057812;28;20039;-74
2024/04/01 08:03:40;;;;;;;29.33;14.43;;;14.70;96.20;;;;;;5049815;28;20021;-73
2024/04/01 08:06:06;;;;;;;26.02;14.07;;;14.70;96.20;;;;;;5051186;28;20562;-74
2024/04/01 08:08:31;;;;;;;25.95;13.20;;;14.80;96.30;;;;;;5052464;28;20032;-74
2024/04/01 08:10:57;;;;;;;23.50;12.77;;;14.80;96.40;;;;;;5057360;28;20047;-74
2024/04/01 08:13:23;;;;;;;24.95;12.63;;;14.90;96.40;;;;;;5058349;28;20472;-74
2024/04/01 08:16:02;;;;;;;19.02;10.02;;;15.00;96.30;;;;;;5059757;28;20032;-74
2024/04/01 08:18:28;;;;;;;22.70;11.30;;;15.00;95.90;;;;;;5050883;28;20554;-74
2024/04/01 08:20:56;;;;;;;21.75;10.50;;;15.10;95.40;;;;;;5054697;28;20058;-74
2024/04/01 08:23:22;;;;;;;18.45;10.45;;;15.10;95.20;;;;;;5061117;28;20111;-75
2024/04/01 08:25:48;;;;;;;20.50;11.48;;;15.10;95.10;;;;;;5059819;28;20032;-75
2024/04/01 08:28:14;;;;;;;23.90;11.70;;;15.10;95.10;;;;;;5055560;28;20036;-73
2024/04/01 08:30:39;;;;;;;21.17;11.18;;;15.10;95.00;;;;;;5053340;28;20029;-75
2024/04/01 08:33:05;;;;;;;25.25;11.60;;;15.10;95.10;;;;;;5068156;28;20118;-72
2024/04/01 08:35:31;;;;;;;16.20;10.35;;;15.10;95.10;;;;;;5050376;28;20039;-73
2024/04/01 08:37:56;;;;;;;21.98;10.90;;;15.10;95.10;;;;;;5047626;28;20499;-73
2024/04/01 08:40:22;;;;;;;16.40;8.80;;;15.10;95.00;;;;;;5061196;28;20070;-73
2024/04/01 08:42:55;;;;;;;18.90;9.93;;;15.10;95.10;;;;;;5048014;28;20068;-75
2024/04/01 08:45:21;;;;;;;18.98;10.98;;;15.10;95.10;;;;;;5048222;28;20028;-72
2024/04/01 08:47:53;;;;;;;20.33;10.07;;;15.10;95.20;;;;;;5054489;28;20029;-73
2024/04/01 08:50:22;;;;;;;21.25;11.07;;;15.20;95.30;;;;;;5053362;28;20028;-75
2024/04/01 08:53:11;;;;;;;18.55;11.00;;;15.10;95.30;;;;;;5049315;28;20386;-74
2024/04/01 08:55:37;;;;;;;20.02;11.25;;;15.20;95.30;;;;;;5056250;28;20050;-74
2024/04/01 08:58:03;;;;;;;23.10;13.00;;;15.20;95.20;;;;;;5057317;28;20033;-73
2024/04/01 09:00:30;;;;;;;26.00;13.68;;;15.30;95.30;;;;;;5049446;28;20053;-75
2024/04/01 09:02:56;;;;;;;25.75;12.52;;;15.30;95.40;;;;;;5047796;28;20094;-76
2024/04/01 09:05:21;;;;;;;25.17;13.48;;;15.30;95.50;;;;;;5050871;28;20029;-74
2024/04/01 09:07:48;;;;;;;28.17;12.20;;;15.40;95.50;;;;;;5067923;28;20115;-74
2024/04/01 09:10:21;;;;;;;18.05;11.95;;;15.40;95.60;;;;;;5051294;28;20078;-74
2024/04/01 09:12:46;;;;;;;21.53;12.77;;;15.40;95.90;;;;;;5051892;28;20040;-73
2024/04/01 09:15:12;;;;;;;27.05;12.40;;;15.50;95.60;;;;;;5059604;28;20041;-73
2024/04/01 09:17:38;;;;;;;26.88;12.38;;;15.50;95.60;;;;;;5055816;28;20059;-74
2024/04/01 09:20:05;;;;;;;24.70;13.18;;;15.60;95.60;;;;;;5057793;28;20086;-74
2024/04/01 09:22:34;;;;;;;29.88;12.65;;;15.70;95.60;;;;;;5059851;28;20040;-75
2024/04/01 09:24:59;;;;;;;23.38;11.85;;;15.60;95.50;;;;;;5060319;28;20032;-73
2024/04/01 09:27:25;;;;;;;22.25;12.15;;;15.60;95.60;;;;;;5058644;28;20114;-74
2024/04/01 09:29:52;;;;;;;19.85;11.68;;;15.60;95.60;;;;;;5063118;28;20039;-74
2024/04/01 09:32:18;;;;;;;28.70;12.70;;;15.60;95.70;;;;;;5060863;28;20103;-74
2024/04/01 09:34:44;;;;;;;21.02;12.27;;;15.50;95.70;;;;;;5059824;28;20491;-73
2024/04/01 09:37:10;;;;;;;27.75;13.90;;;15.50;95.80;;;;;;5056839;28;20041;-73
2024/04/01 09:39:40;;;;;;;25.92;13.57;;;15.60;95.70;;;;;;5063783;28;20037;-74
2024/04/01 09:42:09;;;;;;;29.77;14.65;;;15.50;95.70;;;;;;5052189;28;20153;-74
2024/04/01 09:44:35;;;;;;;27.73;14.45;;;15.50;95.70;;;;;;5061310;28;20418;-74
2024/04/01 09:47:03;;;;;;;26.80;15.02;;;15.50;95.80;;;;;;5066499;28;20028;-74
2024/04/01 09:49:31;;;;;;;28.20;13.50;;;15.40;95.90;;;;;;5055239;28;20079;-75
2024/04/01 09:51:59;;;;;;;24.52;13.90;;;15.40;95.90;;;;;;5065199;28;20036;-74
2024/04/01 09:54:24;;;;;;;22.27;12.10;;;15.40;96.00;;;;;;5050591;28;20135;-74
2024/04/01 09:57:25;;;;;;;23.48;12.52;;;15.40;96.10;;;;;;5059041;28;20123;-75
2024/04/01 10:00:14;;;;;;;23.05;13.02;;;15.50;96.00;;;;;;5018002;28;20041;-74
2024/04/01 10:02:58;;;;;;;20.92;10.75;;;15.50;95.60;;;;;;5061013;28;21096;-74
2024/04/01 10:06:01;;;;;;;21.05;10.52;;;15.50;95.30;;;;;;5060906;28;20033;-74
2024/04/01 10:08:54;;;;;;;15.45;8.30;;;15.50;95.30;;;;;;5055178;28;20029;-75
2024/04/01 10:11:53;;;;;;;23.98;11.77;;;15.50;95.30;;;;;;5058422;28;20029;-75
2024/04/01 10:14:24;;;;;;;28.40;14.93;;;15.50;95.30;;;;;;5054713;28;20028;-75
2024/04/01 10:17:02;;;;;;;25.25;10.82;;;15.50;95.30;;;;;;5062076;28;20048;-73
2024/04/01 10:19:49;;;;;;;25.13;11.00;;;15.50;95.40;;;;;;5070531;28;20032;-75
2024/04/01 10:22:52;;;;;;;18.52;10.85;;;15.50;95.40;;;;;;5063891;28;20024;-74
2024/04/01 10:25:58;;;;;;;21.77;11.27;;;15.40;95.50;;;;;;5057299;28;20024;-75
2024/04/01 10:28:33;;;;;;;20.02;11.30;;;15.50;95.50;;;;;;5054953;28;20082;-74
2024/04/01 10:31:07;;;;;;;16.67;9.73;;;15.50;95.40;;;;;;5052264;28;20094;-74
2024/04/01 10:34:10;;;;;;;19.15;10.18;;;15.50;95.50;;;;;;5055612;28;20033;-73
2024/04/01 10:37:13;;;;;;;19.98;11.23;;;15.50;95.50;;;;;;5057106;28;20562;-75
2024/04/01 10:40:07;;;;;;;29.10;11.80;;;15.50;95.90;;;;;;5057328;28;20566;-74
2024/04/01 10:42:42;;;;;;;17.63;10.93;;;15.50;95.60;;;;;;5053802;28;20032;-74
2024/04/01 10:45:35;;;;;;;17.55;11.32;;;15.50;95.60;;;;;;5053217;28;20503;-74
2024/04/01 10:48:06;;;;;;;17.03;10.27;;;15.60;95.70;;;;;;5062223;28;20024;-74
2024/04/01 10:50:58;;;;;;;18.52;10.73;;;15.50;95.60;;;;;;5069807;28;20484;-74
2024/04/01 10:53:59;;;;;;;17.98;10.73;;;15.50;95.70;;;;;;5064016;28;20044;-74
2024/04/01 10:57:11;;;;;;;21.35;12.13;;;15.50;95.70;;;;;;5057034;28;20044;-74
2024/04/01 10:59:56;;;;;;;19.00;10.60;;;15.60;95.80;;;;;;5048543;28;20065;-74
2024/04/01 11:02:48;;;;;;;19.48;11.00;;;15.60;95.80;;;;;;5052071;28;20536;-74
2024/04/01 11:05:34;;;;;;;13.25;8.50;;;15.60;95.80;;;;;;5066001;28;20486;-74
2024/04/01 11:08:40;;;;;;;16.85;9.70;;;15.60;95.80;;;;;;5062288;28;20091;-74
2024/04/01 11:11:38;;;;;;;13.60;8.73;;;15.60;95.90;;;;;;5065694;28;20044;-74
2024/04/01 11:14:05;;;;;;;20.00;9.90;;;15.60;95.90;;;;;;5059643;28;20063;-74
2024/04/01 11:16:32;;;;;;;18.33;9.98;;;15.50;95.90;;;;;;5056582;28;20044;-74
2024/04/01 11:19:13;;;;;;;9.75;6.15;;;15.60;96.10;;;;;;5057004;28;20035;-74
2024/04/01 11:21:50;;;;;;;8.90;4.40;;;15.50;96.20;;;;;;5048636;28;20037;-74
2024/04/01 11:24:30;;;;;;;18.60;8.13;;;15.50;96.30;;;;;;5052450;28;20484;-74
2024/04/01 11:27:28;;;;;;;13.48;8.23;;;15.50;96.50;;;;;;5059728;28;20083;-74
2024/04/01 11:30:21;;;;;;;7.53;4.80;;;15.40;96.60;;;;;;5020613;28;20128;-74
2024/04/01 11:32:54;;;;;;;16.33;8.70;;;15.40;96.70;;;;;;5053301;28;20032;-74
2024/04/01 11:35:39;;;;;;;15.05;8.98;;;15.30;96.80;;;;;;5056409;28;20999;-74
2024/04/01 11:38:31;;;;;;;10.02;5.90;;;15.30;96.90;;;;;;5063515;28;20032;-73
2024/04/01 11:40:58;;;;;;;12.15;8.25;;;15.30;97.00;;;;;;5058643;28;20069;-73
2024/04/01 11:43:28;;;;;;;6.65;3.92;;;15.30;97.10;;;;;;5056913;28;20024;-73
2024/04/01 11:45:56;;;;;;;21.88;6.93;;;15.30;97.20;;;;;;5052361;28;20389;-74
2024/04/01 11:48:22;;;;;;;7.05;4.80;;;15.30;97.30;;;;;;5050494;28;20067;-73
2024/04/01 11:50:52;;;;;;;4.13;2.70;;;15.20;97.50;;;;;;5064743;28;20028;-73
2024/04/01 11:53:18;;;;;;;14.75;8.48;;;15.20;97.60;;;;;;5059985;28;20144;-73
2024/04/01 11:55:55;;;;;;;10.55;6.40;;;15.20;97.70;;;;;;5048446;28;20040;-73
2024/04/01 11:58:21;;;;;;;10.25;7.10;;;15.20;97.90;;;;;;5061437;28;20507;-73
2024/04/01 12:00:55;;;;;;;12.48;6.50;;;15.10;98.00;;;;;;5050993;28;20123;-72
2024/04/01 12:03:21;;;;;;;6.72;3.50;;;15.10;98.10;;;;;;5051162;28;20043;-74
2024/04/01 12:05:54;;;;;;;10.25;5.65;;;15.10;98.20;;;;;;5064584;28;20488;-74
2024/04/01 12:08:23;;;;;;;10.10;4.93;;;15.10;98.40;;;;;;5059032;28;20017;-73
2024/04/01 12:10:50;;;;;;;10.90;7.00;;;15.00;98.50;;;;;;5055560;28;20024;-74
2024/04/01 12:13:17;;;;;;;6.75;4.30;;;15.10;98.60;;;;;;5052363;28;20058;-73
2024/04/01 12:15:46;;;;;;;14.40;8.23;;;15.10;98.60;;;;;;5058118;28;20492;-74
2024/04/01 12:18:16;;;;;;;14.35;7.85;;;15.00;98.70;;;;;;5064716;28;20486;-74
2024/04/01 12:20:42;;;;;;;8.80;5.55;;;15.10;98.70;;;;;;5053550;28;20044;-73
2024/04/01 12:23:09;;;;;;;7.50;4.63;;;15.00;98.70;;;;;;5057028;28;20024;-74
2024/04/01 12:25:35;;;;;;;5.55;4.45;;;15.10;98.80;;;;;;5056929;28;20036;-74
2024/04/01 12:28:08;;;;;;;12.55;6.40;;;15.20;98.80;;;;;;5049224;28;20029;-74
2024/04/01 12:30:38;;;;;;;11.38;6.32;;;15.10;98.70;;;;;;5060440;28;20045;-74
2024/04/01 12:33:05;;;;;;;8.63;4.55;;;15.10;98.70;;;;;;5055847;28;20448;-75
2024/04/01 12:35:32;;;;;;;7.20;3.45;;;15.10;98.70;;;;;;5051585;28;20033;-75
2024/04/01 12:38:03;;;;;;;18.50;12.15;;;15.10;98.70;;;;;;5057133;28;20613;-75
2024/04/01 12:40:45;;;;;;;20.17;11.80;;;15.10;98.80;;;;;;5051018;28;20174;-75
2024/04/01 12:43:23;;;;;;;12.40;7.15;;;15.20;98.70;;;;;;5053763;28;20047;-76